Time;durP1;ratioP1;P1;durP2;ratioP2;P2;SDS_P1;SDS_P2;PMS_P1;PMS_P2;Temp;Humidity;BMP_temperature;BMP_pressure;BME280_temperature;BME280_humidity;BME280_pressure;Samples;Min_cycle;Max_cycle;Signal;HPM_P1;HPM_P2
2022/09/25 00:01:00;;;;;;;5.93;2.47;;;10.20;99.90;;;;;;4976285;28;20696;-68
2022/09/25 00:03:28;;;;;;;5.85;3.17;;;10.20;99.90;;;;;;4974361;28;20073;-68
2022/09/25 00:06:04;;;;;;;2.45;2.03;;;10.20;99.90;;;;;;4988763;28;20300;-68
2022/09/25 00:08:32;;;;;;;2.97;2.35;;;10.10;99.90;;;;;;4975332;28;20718;-68
2022/09/25 00:10:59;;;;;;;4.35;2.33;;;10.10;99.90;;;;;;4989920;28;20394;-69
2022/09/25 00:13:25;;;;;;;;;;;10.10;99.90;;;;;;4976575;28;20395;-68
2022/09/25 00:15:54;;;;;;;5.95;2.58;;;10.00;99.90;;;;;;4975221;28;19931;-69
2022/09/25 00:21:11;;;;;;;4.07;3.23;;;9.90;99.90;;;;;;4976267;28;20068;-68
2022/09/25 00:23:40;;;;;;;6.65;3.20;;;9.90;99.90;;;;;;4971708;28;20224;-68
2022/09/25 00:26:08;;;;;;;4.75;3.42;;;9.80;99.90;;;;;;4975374;28;20885;-68
2022/09/25 00:28:36;;;;;;;6.60;3.33;;;9.80;99.90;;;;;;4973088;28;20038;-68
2022/09/25 00:31:04;;;;;;;7.38;2.97;;;9.80;99.90;;;;;;4982488;28;20049;-68
2022/09/25 00:33:33;;;;;;;6.78;3.13;;;9.80;99.90;;;;;;4977283;28;20049;-68
2022/09/25 00:36:05;;;;;;;4.75;3.13;;;9.80;99.90;;;;;;4977165;28;20052;-68
2022/09/25 00:38:34;;;;;;;3.85;3.35;;;9.70;99.90;;;;;;4973205;28;20533;-68
2022/09/25 00:41:03;;;;;;;2.80;2.60;;;9.70;99.90;;;;;;4980607;28;20297;-68
2022/09/25 00:43:39;;;;;;;4.90;3.20;;;9.70;99.90;;;;;;4974470;28;20115;-69
2022/09/25 00:46:29;;;;;;;3.72;2.67;;;9.70;99.90;;;;;;4976635;28;20365;-68
2022/09/25 00:49:03;;;;;;;6.47;3.25;;;9.70;99.90;;;;;;4970457;28;20387;-68
2022/09/25 00:51:40;;;;;;;4.13;3.45;;;9.70;99.90;;;;;;4975517;28;20770;-68
2022/09/25 00:54:16;;;;;;;4.37;3.63;;;9.60;99.90;;;;;;4972531;28;20451;-68
2022/09/25 00:56:46;;;;;;;3.80;3.08;;;9.60;99.90;;;;;;4974865;28;20467;-68
2022/09/25 00:59:18;;;;;;;6.95;3.63;;;9.60;99.90;;;;;;4969738;28;20171;-68
2022/09/25 01:01:45;;;;;;;4.43;3.63;;;9.60;99.90;;;;;;4975106;28;20668;-68
2022/09/25 01:04:13;;;;;;;3.40;3.10;;;9.60;99.90;;;;;;4975303;28;20179;-68
2022/09/25 01:06:40;;;;;;;4.10;3.40;;;9.60;99.90;;;;;;4970754;28;20519;-68
2022/09/25 01:09:07;;;;;;;3.10;2.72;;;9.60;99.90;;;;;;4970630;28;20486;-68
2022/09/25 01:11:34;;;;;;;3.85;3.28;;;9.60;99.90;;;;;;4972254;28;20423;-68
2022/09/25 01:14:03;;;;;;;;;;;9.60;99.90;;;;;;4976524;28;20163;-68
2022/09/25 01:16:42;;;;;;;6.47;2.88;;;9.60;99.90;;;;;;4989459;28;19932;-68
2022/09/25 01:19:09;;;;;;;3.42;3.13;;;9.60;99.90;;;;;;4976694;28;20399;-68
2022/09/25 01:21:43;;;;;;;5.43;3.28;;;9.60;99.90;;;;;;4978881;28;20068;-68
2022/09/25 01:24:47;;;;;;;4.93;3.10;;;9.60;99.90;;;;;;4975187;28;20056;-68
2022/09/25 01:27:46;;;;;;;3.78;3.45;;;9.60;99.90;;;;;;4970616;28;20052;-68
2022/09/25 01:30:17;;;;;;;5.78;3.03;;;9.60;99.90;;;;;;4975432;28;20209;-68
2022/09/25 01:32:55;;;;;;;4.40;3.88;;;9.60;99.90;;;;;;4974561;28;20052;-68
2022/09/25 01:35:51;;;;;;;5.22;3.70;;;9.50;99.90;;;;;;4974568;28;20379;-68
2022/09/25 01:38:35;;;;;;;3.50;3.20;;;9.60;99.90;;;;;;4979880;28;20314;-68
2022/09/25 01:41:06;;;;;;;3.25;2.63;;;9.60;99.90;;;;;;4976454;28;20053;-68
2022/09/25 01:43:33;;;;;;;4.45;3.63;;;9.60;99.90;;;;;;4967288;28;20439;-68
2022/09/25 01:46:01;;;;;;;;;;;9.60;99.90;;;;;;4979888;28;20045;-68
2022/09/25 01:48:31;;;;;;;10.18;3.30;;;9.60;99.90;;;;;;4978086;28;20224;-68
2022/09/25 01:51:31;;;;;;;3.88;3.42;;;9.60;99.90;;;;;;4975852;28;20041;-68
2022/09/25 01:54:04;;;;;;;3.55;2.88;;;9.60;99.90;;;;;;4978158;28;20432;-66
2022/09/25 01:56:36;;;;;;;4.88;2.80;;;9.70;99.90;;;;;;4973196;28;20128;-68
2022/09/25 01:59:15;;;;;;;2.65;2.22;;;9.70;99.90;;;;;;4975878;28;20087;-68
2022/09/25 02:01:45;;;;;;;3.70;3.30;;;9.70;99.90;;;;;;4975576;28;20242;-68
2022/09/25 02:04:17;;;;;;;3.03;2.58;;;9.70;99.90;;;;;;4970422;28;20218;-68
2022/09/25 02:06:48;;;;;;;3.65;2.83;;;9.70;99.90;;;;;;4973979;28;20870;-69
2022/09/25 02:09:23;;;;;;;3.22;2.38;;;9.70;99.90;;;;;;4957253;28;20592;-68
2022/09/25 02:11:56;;;;;;;3.67;3.22;;;9.70;99.90;;;;;;4976178;28;20225;-68
2022/09/25 02:14:33;;;;;;;4.55;3.55;;;9.70;99.90;;;;;;4971794;28;20165;-68
2022/09/25 02:17:05;;;;;;;11.02;3.63;;;9.80;99.90;;;;;;4989854;28;20243;-68
2022/09/25 02:22:23;;;;;;;5.15;3.13;;;9.70;99.90;;;;;;4980706;28;20049;-68
2022/09/25 02:24:59;;;;;;;4.05;3.35;;;9.70;99.90;;;;;;4972746;28;20210;-68
2022/09/25 02:27:28;;;;;;;2.53;2.33;;;9.70;99.90;;;;;;4980716;28;20517;-68
2022/09/25 02:29:57;;;;;;;4.25;3.53;;;9.70;99.90;;;;;;4983442;28;20041;-68
2022/09/25 02:32:29;;;;;;;6.10;3.80;;;9.70;99.90;;;;;;4975336;28;20474;-68
2022/09/25 02:34:58;;;;;;;8.02;3.08;;;9.70;99.90;;;;;;4976454;28;20045;-69
2022/09/25 02:37:26;;;;;;;4.55;3.17;;;9.70;99.90;;;;;;4974445;28;20198;-67
2022/09/25 02:39:59;;;;;;;4.45;3.13;;;9.70;99.90;;;;;;4991277;28;20162;-67
2022/09/25 02:42:49;;;;;;;3.83;2.97;;;9.70;99.90;;;;;;4976416;28;20222;-68
2022/09/25 02:45:40;;;;;;;6.78;3.45;;;9.70;99.90;;;;;;4973677;28;20049;-70
2022/09/25 02:48:29;;;;;;;3.03;2.50;;;9.70;99.90;;;;;;4973585;28;20392;-70
2022/09/25 02:51:01;;;;;;;4.38;3.22;;;9.70;99.90;;;;;;4973174;28;20045;-70
2022/09/25 02:53:46;;;;;;;3.25;2.58;;;9.70;99.90;;;;;;4976538;28;20200;-70
2022/09/25 02:56:24;;;;;;;3.58;2.63;;;9.70;99.90;;;;;;4974008;28;20252;-71
2022/09/25 02:58:58;;;;;;;2.67;2.40;;;9.70;99.90;;;;;;4978120;28;20652;-71
2022/09/25 03:01:30;;;;;;;5.10;3.70;;;9.70;99.90;;;;;;4979166;28;20383;-69
2022/09/25 03:03:59;;;;;;;3.47;2.90;;;9.60;99.90;;;;;;4972001;28;20316;-70
2022/09/25 03:06:27;;;;;;;3.65;2.75;;;9.70;99.90;;;;;;4971682;28;20357;-71
2022/09/25 03:08:55;;;;;;;4.35;2.60;;;9.60;99.90;;;;;;4973693;28;20572;-70
2022/09/25 03:11:25;;;;;;;3.10;2.80;;;9.70;99.90;;;;;;4972044;28;20654;-70
2022/09/25 03:13:57;;;;;;;4.25;2.90;;;9.70;99.90;;;;;;4975821;28;20048;-70
2022/09/25 03:16:45;;;;;;;5.72;2.85;;;9.70;99.90;;;;;;4972693;28;20264;-68
2022/09/25 03:19:13;;;;;;;3.65;3.25;;;9.60;99.90;;;;;;4973596;28;20376;-68
2022/09/25 03:21:40;;;;;;;5.53;2.65;;;9.60;99.90;;;;;;4972959;28;20060;-69
2022/09/25 03:24:06;;;;;;;;;;;9.60;99.90;;;;;;4977947;28;20437;-69
2022/09/25 03:26:33;;;;;;;3.15;2.70;;;9.60;99.90;;;;;;4975459;28;20012;-70
2022/09/25 03:29:01;;;;;;;3.22;2.63;;;9.60;99.90;;;;;;4975961;28;20268;-71
2022/09/25 03:31:29;;;;;;;3.65;2.95;;;9.50;99.90;;;;;;4975327;28;20604;-70
2022/09/25 03:33:57;;;;;;;7.90;3.08;;;9.50;99.90;;;;;;4974668;28;20866;-71
2022/09/25 03:36:26;;;;;;;6.70;3.30;;;9.50;99.90;;;;;;4974596;28;20041;-71
2022/09/25 03:39:00;;;;;;;6.50;3.28;;;9.50;99.90;;;;;;4979576;28;20332;-70
2022/09/25 03:41:32;;;;;;;5.88;3.20;;;9.50;99.90;;;;;;4973258;28;20041;-71
2022/09/25 03:43:59;;;;;;;4.40;3.17;;;9.50;99.90;;;;;;4977020;28;20606;-69
2022/09/25 03:46:29;;;;;;;8.93;3.00;;;9.40;99.90;;;;;;4973881;28;20334;-70
2022/09/25 03:48:57;;;;;;;3.63;2.97;;;9.50;99.90;;;;;;4976579;28;20570;-71
2022/09/25 03:51:25;;;;;;;2.70;2.38;;;9.50;99.90;;;;;;4978790;28;20281;-73
2022/09/25 03:53:53;;;;;;;3.30;2.55;;;9.40;99.90;;;;;;4992283;28;20048;-70
2022/09/25 03:56:23;;;;;;;4.88;2.92;;;9.40;99.90;;;;;;4976306;28;20479;-71
2022/09/25 03:58:53;;;;;;;4.78;3.03;;;9.40;99.90;;;;;;4974873;28;20067;-71
2022/09/25 04:01:20;;;;;;;3.20;2.75;;;9.40;99.90;;;;;;4975500;28;20360;-71
2022/09/25 04:03:48;;;;;;;4.13;3.13;;;9.40;99.90;;;;;;4976832;28;20224;-70
2022/09/25 04:06:17;;;;;;;3.53;2.63;;;9.40;99.90;;;;;;4975789;28;20457;-70
2022/09/25 04:08:46;;;;;;;3.40;2.75;;;9.40;99.90;;;;;;4977485;28;20049;-71
2022/09/25 04:11:18;;;;;;;3.42;2.45;;;9.30;99.90;;;;;;4969287;28;20233;-70
2022/09/25 04:13:45;;;;;;;2.97;2.67;;;9.30;99.90;;;;;;4993167;28;20432;-70
2022/09/25 04:16:13;;;;;;;3.03;2.55;;;9.20;99.90;;;;;;4976126;28;20305;-71
2022/09/25 04:18:41;;;;;;;6.72;2.65;;;9.20;99.90;;;;;;4974754;28;20295;-72
2022/09/25 04:21:11;;;;;;;4.10;2.58;;;9.20;99.90;;;;;;4975199;28;20394;-70
2022/09/25 04:23:38;;;;;;;5.35;2.97;;;9.20;99.90;;;;;;4973253;28;20398;-72
2022/09/25 04:26:07;;;;;;;4.05;3.03;;;9.10;99.90;;;;;;4976043;28;20214;-71
2022/09/25 04:28:34;;;;;;;2.60;2.40;;;9.10;99.90;;;;;;4973089;28;20032;-71
2022/09/25 04:31:02;;;;;;;5.80;3.00;;;9.10;99.90;;;;;;4971125;28;20127;-69
2022/09/25 04:33:46;;;;;;;3.35;3.05;;;9.10;99.90;;;;;;4978033;28;20155;-72
2022/09/25 04:36:17;;;;;;;4.30;3.38;;;9.00;99.90;;;;;;4987066;28;20156;-69
2022/09/25 04:38:46;;;;;;;3.35;3.05;;;9.00;99.90;;;;;;4973790;28;20230;-71
2022/09/25 04:41:16;;;;;;;3.85;3.28;;;9.00;99.90;;;;;;4973896;28;20046;-69
2022/09/25 04:43:43;;;;;;;5.88;3.28;;;8.90;99.90;;;;;;4977432;28;20260;-71
2022/09/25 04:46:12;;;;;;;5.20;3.47;;;8.90;99.90;;;;;;4978703;28;20079;-69
2022/09/25 04:48:47;;;;;;;3.67;3.17;;;8.90;99.90;;;;;;4978780;28;20049;-71
2022/09/25 04:51:14;;;;;;;4.28;3.35;;;8.90;99.90;;;;;;4970464;28;20442;-70
2022/09/25 04:53:41;;;;;;;;;;;8.90;99.90;;;;;;4987984;28;20045;-70
2022/09/25 04:56:10;;;;;;;4.60;3.20;;;8.80;99.90;;;;;;4972704;28;20205;-71
2022/09/25 04:58:47;;;;;;;7.18;3.45;;;8.90;99.90;;;;;;4986952;28;20323;-68
2022/09/25 05:01:16;;;;;;;4.03;3.58;;;8.90;99.90;;;;;;4979393;28;20328;-69
2022/09/25 05:03:48;;;;;;;5.03;3.90;;;8.90;99.90;;;;;;4979484;28;20217;-57
2022/09/25 05:06:16;;;;;;;4.25;3.58;;;8.90;99.90;;;;;;4972847;28;20352;-57
2022/09/25 05:08:43;;;;;;;5.35;3.78;;;8.90;99.90;;;;;;4971415;28;20309;-57
2022/09/25 05:11:10;;;;;;;;;;;8.90;99.90;;;;;;4972127;28;20597;-57
2022/09/25 05:13:37;;;;;;;5.93;4.47;;;8.90;99.90;;;;;;4977661;28;20299;-55
2022/09/25 05:16:04;;;;;;;4.10;3.00;;;8.90;99.90;;;;;;4974401;28;20288;-57
2022/09/25 05:18:31;;;;;;;4.18;3.45;;;9.00;99.90;;;;;;4974570;28;20392;-57
2022/09/25 05:21:05;;;;;;;3.85;3.42;;;9.00;99.90;;;;;;4975837;28;20395;-57
2022/09/25 05:23:32;;;;;;;3.65;2.90;;;9.00;99.90;;;;;;4977265;28;20741;-55
2022/09/25 05:26:02;;;;;;;;;;;9.00;99.90;;;;;;4968400;28;20579;-57
2022/09/25 05:28:30;;;;;;;4.40;3.30;;;9.10;99.90;;;;;;4979900;28;19997;-57
2022/09/25 05:31:01;;;;;;;5.53;3.63;;;9.10;99.90;;;;;;4962186;28;20560;-57
2022/09/25 05:33:29;;;;;;;3.88;3.28;;;9.20;99.90;;;;;;4971183;28;20406;-58
2022/09/25 05:36:04;;;;;;;4.18;3.28;;;9.20;99.90;;;;;;4985554;28;20050;-56
2022/09/25 05:38:33;;;;;;;5.82;3.22;;;9.20;99.90;;;;;;4970114;28;20144;-57
2022/09/25 05:41:03;;;;;;;3.30;2.90;;;9.30;99.90;;;;;;4972055;28;20294;-57
2022/09/25 05:43:31;;;;;;;3.22;2.47;;;9.30;99.90;;;;;;4961714;28;20068;-56
2022/09/25 05:45:59;;;;;;;3.28;2.95;;;9.40;99.90;;;;;;4982364;28;20221;-55
2022/09/25 05:48:26;;;;;;;5.95;2.72;;;9.40;99.90;;;;;;4970019;28;20052;-57
2022/09/25 05:50:55;;;;;;;3.38;3.08;;;9.40;99.90;;;;;;4971631;28;20048;-55
2022/09/25 05:53:23;;;;;;;3.25;2.55;;;9.50;99.90;;;;;;4991733;28;20373;-58
2022/09/25 05:55:54;;;;;;;3.28;2.92;;;9.50;99.90;;;;;;4970644;28;20337;-56
2022/09/25 05:58:21;;;;;;;3.25;2.90;;;9.50;99.90;;;;;;4976961;28;20207;-55
2022/09/25 06:00:49;;;;;;;4.38;2.88;;;9.60;99.90;;;;;;4958138;28;20046;-55
2022/09/25 06:03:16;;;;;;;3.78;3.38;;;9.60;99.90;;;;;;4976882;28;20048;-56
2022/09/25 06:05:45;;;;;;;3.42;3.08;;;9.70;99.90;;;;;;4976769;28;20064;-57
2022/09/25 06:08:13;;;;;;;3.88;3.47;;;9.70;99.90;;;;;;4974828;28;20045;-56
2022/09/25 06:10:40;;;;;;;5.07;2.90;;;9.80;99.90;;;;;;4972848;28;20033;-56
2022/09/25 06:13:07;;;;;;;8.27;4.07;;;9.80;99.90;;;;;;4974849;28;20047;-56
2022/09/25 06:15:40;;;;;;;3.17;2.85;;;9.80;99.90;;;;;;4979854;28;20056;-56
2022/09/25 06:18:08;;;;;;;4.38;3.17;;;9.90;99.90;;;;;;4980393;28;20350;-57
2022/09/25 06:20:35;;;;;;;3.13;2.83;;;9.90;99.90;;;;;;4974687;28;20501;-56
2022/09/25 06:23:02;;;;;;;3.28;2.97;;;9.90;99.90;;;;;;4977490;28;20554;-56
2022/09/25 06:25:35;;;;;;;5.90;3.08;;;10.00;99.90;;;;;;4969423;28;20050;-56
2022/09/25 06:28:03;;;;;;;3.92;3.50;;;10.00;99.90;;;;;;4977752;28;20056;-58
2022/09/25 06:30:35;;;;;;;4.40;3.47;;;10.00;99.90;;;;;;4977693;28;20044;-55
2022/09/25 06:33:11;;;;;;;3.83;3.30;;;10.00;99.90;;;;;;4985521;28;20052;-57
2022/09/25 06:35:43;;;;;;;3.35;2.70;;;10.00;99.90;;;;;;4974288;28;20040;-56
2022/09/25 06:38:11;;;;;;;4.00;3.40;;;10.00;99.90;;;;;;4971044;28;20279;-57
2022/09/25 06:40:39;;;;;;;3.90;3.05;;;10.10;99.90;;;;;;4995614;28;20702;-56
2022/09/25 06:43:12;;;;;;;3.28;2.75;;;10.10;99.90;;;;;;4978529;28;20300;-57
2022/09/25 06:45:40;;;;;;;5.40;3.67;;;10.10;99.90;;;;;;4975778;28;20978;-55
2022/09/25 06:48:15;;;;;;;3.50;2.72;;;10.20;99.90;;;;;;4975772;28;20079;-57
2022/09/25 06:50:45;;;;;;;3.83;3.25;;;10.30;99.90;;;;;;4970676;28;20041;-56
2022/09/25 06:53:14;;;;;;;5.85;4.35;;;10.30;99.90;;;;;;4972367;28;20202;-57
2022/09/25 06:55:44;;;;;;;4.43;4.00;;;10.40;99.90;;;;;;4971025;28;20444;-56
2022/09/25 06:58:14;;;;;;;9.32;4.45;;;10.40;99.90;;;;;;4980007;28;20356;-57
2022/09/25 07:00:46;;;;;;;3.58;3.22;;;10.50;99.90;;;;;;4978530;28;20183;-57
2022/09/25 07:05:59;;;;;;;5.85;5.05;;;10.60;99.90;;;;;;4972079;28;20069;-56
2022/09/25 07:08:27;;;;;;;6.57;4.97;;;10.60;99.90;;;;;;4974789;28;20050;-55
2022/09/25 07:10:56;;;;;;;6.93;4.88;;;10.60;99.90;;;;;;4991277;28;20044;-57
2022/09/25 07:13:26;;;;;;;5.90;4.40;;;10.70;99.90;;;;;;4991184;28;20052;-56
2022/09/25 07:15:58;;;;;;;8.15;4.97;;;10.70;99.90;;;;;;4967633;28;20049;-54
2022/09/25 07:18:27;;;;;;;7.28;4.65;;;10.70;99.90;;;;;;4978431;28;20037;-53
2022/09/25 07:21:10;;;;;;;4.35;3.95;;;10.70;99.90;;;;;;4975794;28;20402;-54
2022/09/25 07:23:37;;;;;;;4.78;4.28;;;10.80;99.90;;;;;;4980451;28;20056;-55
2022/09/25 07:26:06;;;;;;;7.28;5.05;;;10.80;99.90;;;;;;4974151;28;20042;-54
2022/09/25 07:28:33;;;;;;;7.13;4.82;;;10.80;99.90;;;;;;4972080;28;20871;-54
2022/09/25 07:31:14;;;;;;;5.40;4.90;;;10.90;99.90;;;;;;4980575;28;20044;-54
2022/09/25 07:33:41;;;;;;;7.38;5.85;;;10.90;99.90;;;;;;4967537;28;20048;-55
2022/09/25 07:36:09;;;;;;;9.23;7.38;;;11.00;99.90;;;;;;4978227;28;20205;-60
2022/09/25 07:38:35;;;;;;;9.15;7.40;;;11.00;99.90;;;;;;4973867;28;20099;-53
2022/09/25 07:41:09;;;;;;;27.25;18.67;;;11.10;99.90;;;;;;4973988;28;20049;-55
2022/09/25 07:43:38;;;;;;;25.60;19.77;;;11.20;99.90;;;;;;4975903;28;20056;-54
2022/09/25 07:46:05;;;;;;;12.50;10.45;;;11.20;99.90;;;;;;4972197;28;20064;-53
2022/09/25 07:48:33;;;;;;;13.82;12.15;;;11.30;99.90;;;;;;4972551;28;20045;-54
2022/09/25 07:51:01;;;;;;;14.70;12.10;;;11.30;99.90;;;;;;4971341;28;20030;-54
2022/09/25 07:53:28;;;;;;;8.48;7.53;;;11.30;99.90;;;;;;4971045;28;20409;-54
2022/09/25 07:55:58;;;;;;;7.03;5.70;;;11.40;99.90;;;;;;4986937;28;20034;-54
2022/09/25 07:58:34;;;;;;;4.63;4.05;;;11.40;99.90;;;;;;4974822;28;20143;-55
2022/09/25 08:01:03;;;;;;;8.85;4.97;;;11.50;99.90;;;;;;4976323;28;20355;-55
2022/09/25 08:03:31;;;;;;;6.28;5.15;;;11.60;99.90;;;;;;4967540;28;20057;-54
2022/09/25 08:06:00;;;;;;;8.30;5.30;;;11.70;99.90;;;;;;4976361;28;20776;-55
2022/09/25 08:08:28;;;;;;;7.28;5.60;;;11.80;99.90;;;;;;4974382;28;20580;-54
2022/09/25 08:11:06;;;;;;;13.38;6.70;;;11.90;99.90;;;;;;4967571;28;20042;-53
2022/09/25 08:13:34;;;;;;;9.48;7.35;;;12.10;99.90;;;;;;4972369;28;20151;-57
2022/09/25 08:16:02;;;;;;;15.40;9.55;;;12.20;99.90;;;;;;4977037;28;20116;-54
2022/09/25 08:18:30;;;;;;;11.57;9.48;;;12.30;99.90;;;;;;4978445;28;20357;-55
2022/09/25 08:21:03;;;;;;;10.32;8.70;;;12.40;99.90;;;;;;4979622;28;20148;-55
2022/09/25 08:23:31;;;;;;;11.82;9.63;;;12.50;99.90;;;;;;4975448;28;20037;-54
2022/09/25 08:25:58;;;;;;;11.10;9.70;;;12.50;99.90;;;;;;4976949;28;20065;-55
2022/09/25 08:28:26;;;;;;;13.05;9.75;;;12.50;99.90;;;;;;4994245;28;20573;-55
2022/09/25 08:30:53;;;;;;;14.20;8.73;;;12.50;99.90;;;;;;4976961;28;20056;-56
2022/09/25 08:33:20;;;;;;;10.05;8.60;;;12.50;99.90;;;;;;4976865;28;20917;-58
2022/09/25 08:36:01;;;;;;;14.43;10.77;;;12.50;99.90;;;;;;4968881;28;20032;-56
2022/09/25 08:38:31;;;;;;;20.15;13.80;;;12.50;99.90;;;;;;4981248;28;20041;-56
2022/09/25 08:41:07;;;;;;;15.05;11.75;;;12.50;99.90;;;;;;4969890;28;20597;-55
2022/09/25 08:43:41;;;;;;;12.43;10.27;;;12.50;99.90;;;;;;4992045;28;20903;-55
2022/09/25 08:49:25;;;;;;;16.42;11.93;;;12.50;99.90;;;;;;4980741;28;20150;-56
2022/09/25 08:51:57;;;;;;;13.35;11.30;;;12.50;99.90;;;;;;4979831;28;20304;-57
2022/09/25 08:54:27;;;;;;;16.05;12.20;;;12.60;99.90;;;;;;4973422;28;20033;-56
2022/09/25 08:56:58;;;;;;;15.98;11.57;;;12.60;99.90;;;;;;4994264;28;20190;-56
2022/09/25 08:59:30;;;;;;;14.27;11.25;;;12.70;99.90;;;;;;4970455;28;20036;-56
2022/09/25 09:02:19;;;;;;;13.40;11.15;;;12.70;99.90;;;;;;4979228;28;20052;-54
2022/09/25 09:04:57;;;;;;;13.85;11.82;;;12.60;99.90;;;;;;4975185;28;20045;-54
2022/09/25 09:07:36;;;;;;;15.57;11.02;;;12.70;99.90;;;;;;4981009;28;20050;-55
2022/09/25 09:10:39;;;;;;;14.55;10.85;;;12.70;99.90;;;;;;4973742;28;20045;-54
2022/09/25 09:13:31;;;;;;;16.95;12.07;;;12.70;99.90;;;;;;4981933;28;20369;-54
2022/09/25 09:16:04;;;;;;;16.30;12.98;;;12.70;99.90;;;;;;4979277;28;20104;-54
2022/09/25 09:18:37;;;;;;;19.77;13.27;;;12.70;99.90;;;;;;4975927;28;20558;-55
2022/09/25 09:21:10;;;;;;;14.30;12.07;;;12.70;99.90;;;;;;4976907;28;20056;-55
2022/09/25 09:23:59;;;;;;;17.55;13.77;;;12.70;99.90;;;;;;4973525;28;20066;-56
2022/09/25 09:26:36;;;;;;;14.30;10.13;;;12.70;99.90;;;;;;4980424;28;20041;-55
2022/09/25 09:29:30;;;;;;;15.73;11.60;;;12.70;99.90;;;;;;4979116;28;20402;-55
2022/09/25 09:32:18;;;;;;;15.32;12.23;;;12.70;99.90;;;;;;4976781;28;20064;-55
2022/09/25 09:34:58;;;;;;;19.02;14.25;;;12.70;99.90;;;;;;4971557;28;20148;-55
2022/09/25 09:37:48;;;;;;;17.73;14.23;;;12.80;99.90;;;;;;4976534;28;20110;-56
2022/09/25 09:40:52;;;;;;;17.33;13.73;;;12.90;99.90;;;;;;4976072;28;20390;-55
2022/09/25 09:43:58;;;;;;;16.33;12.82;;;12.90;99.90;;;;;;4972411;28;20327;-57
2022/09/25 09:46:28;;;;;;;16.55;12.13;;;13.00;99.90;;;;;;4973656;28;20046;-56
2022/09/25 09:49:23;;;;;;;12.05;10.50;;;13.10;99.90;;;;;;4978194;28;20111;-57
2022/09/25 09:51:57;;;;;;;17.00;11.60;;;13.10;99.90;;;;;;4986013;28;20159;-55
2022/09/25 09:55:05;;;;;;;17.73;12.38;;;13.20;99.90;;;;;;4971621;28;20867;-55
2022/09/25 09:57:49;;;;;;;21.50;12.90;;;13.20;99.90;;;;;;4945025;28;20211;-56
2022/09/25 10:00:18;;;;;;;14.90;12.23;;;13.20;99.90;;;;;;4985969;28;20053;-56
2022/09/25 10:02:58;;;;;;;26.67;18.90;;;13.30;99.90;;;;;;4979060;28;20055;-56
2022/09/25 10:05:36;;;;;;;19.65;14.15;;;13.30;99.90;;;;;;4977620;28;20048;-55
2022/09/25 10:08:03;;;;;;;16.67;13.05;;;13.30;99.90;;;;;;4979522;28;20136;-55
2022/09/25 10:10:40;;;;;;;19.63;13.55;;;13.30;99.90;;;;;;4981992;28;20118;-56
2022/09/25 10:13:19;;;;;;;15.85;12.10;;;13.30;99.90;;;;;;4977422;28;20041;-56
2022/09/25 10:15:59;;;;;;;13.63;10.98;;;13.40;99.90;;;;;;4990425;28;20045;-56
2022/09/25 10:18:39;;;;;;;15.23;11.65;;;13.50;99.90;;;;;;4971409;28;20115;-56
2022/09/25 10:21:07;;;;;;;14.13;10.98;;;13.50;99.90;;;;;;4981971;28;20320;-57
2022/09/25 10:23:49;;;;;;;13.23;10.73;;;13.60;99.90;;;;;;4971122;28;20813;-56
2022/09/25 10:26:30;;;;;;;13.35;11.13;;;13.60;99.90;;;;;;4973177;28;20351;-56
2022/09/25 10:29:00;;;;;;;12.80;10.20;;;13.70;99.90;;;;;;4976639;28;20059;-56
2022/09/25 10:31:35;;;;;;;9.95;8.75;;;13.80;99.90;;;;;;4969744;28;20049;-56
2022/09/25 10:34:17;;;;;;;10.15;8.30;;;13.90;99.90;;;;;;4976510;28;20575;-54
2022/09/25 10:36:46;;;;;;;9.40;7.90;;;14.00;99.90;;;;;;4964079;28;20574;-52
2022/09/25 10:39:28;;;;;;;10.88;9.07;;;14.10;99.90;;;;;;4979390;28;20858;-54
2022/09/25 10:42:38;;;;;;;9.57;7.63;;;14.20;99.90;;;;;;4970111;28;20110;-54
2022/09/25 10:45:27;;;;;;;8.30;6.88;;;14.20;99.90;;;;;;4979711;28;20049;-53
2022/09/25 10:50:40;;;;;;;6.88;6.03;;;14.20;99.90;;;;;;4978319;28;20045;-55
2022/09/25 10:53:28;;;;;;;7.90;7.00;;;14.20;99.90;;;;;;4984018;28;20105;-55
2022/09/25 10:56:03;;;;;;;6.35;5.72;;;14.20;99.90;;;;;;4966558;28;20203;-54
2022/09/25 10:58:39;;;;;;;8.20;5.07;;;14.20;99.90;;;;;;4978885;28;20170;-55
2022/09/25 11:01:12;;;;;;;8.15;6.80;;;14.20;99.90;;;;;;4969287;28;20045;-55
2022/09/25 11:03:52;;;;;;;10.98;7.13;;;14.30;99.90;;;;;;4976492;28;20348;-55
2022/09/25 11:06:27;;;;;;;7.70;6.60;;;14.30;99.90;;;;;;4973912;28;20861;-55
2022/09/25 11:09:13;;;;;;;8.77;7.32;;;14.30;99.90;;;;;;4973958;28;20134;-55
2022/09/25 11:11:43;;;;;;;10.48;7.20;;;14.40;99.90;;;;;;4976820;28;20570;-54
2022/09/25 11:14:21;;;;;;;8.57;7.32;;;14.40;99.90;;;;;;4972727;28;20584;-54
2022/09/25 11:16:51;;;;;;;9.45;6.88;;;14.40;99.90;;;;;;4979054;28;20594;-54
2022/09/25 11:19:29;;;;;;;9.18;8.00;;;14.50;99.90;;;;;;4972951;28;20753;-56
2022/09/25 11:22:17;;;;;;;7.28;6.30;;;14.40;99.90;;;;;;4993584;28;20562;-54
2022/09/25 11:25:01;;;;;;;9.88;7.88;;;14.50;99.90;;;;;;4970736;28;20360;-55
2022/09/25 11:28:05;;;;;;;7.95;6.25;;;14.50;99.90;;;;;;4976277;28;20104;-55
2022/09/25 11:30:41;;;;;;;6.93;6.10;;;14.50;99.90;;;;;;4973645;28;20045;-55
2022/09/25 11:33:23;;;;;;;7.07;6.38;;;14.60;99.90;;;;;;4975019;28;20318;-55
2022/09/25 11:36:15;;;;;;;6.28;5.68;;;14.60;99.90;;;;;;4971788;28;20918;-55
2022/09/25 11:42:05;;;;;;;8.27;6.93;;;14.70;99.90;;;;;;4972779;28;20060;-55
2022/09/25 11:45:07;;;;;;;7.53;6.50;;;14.70;99.90;;;;;;4973004;28;20620;-56
2022/09/25 11:47:53;;;;;;;9.73;7.90;;;14.60;99.90;;;;;;4976236;28;20049;-54
2022/09/25 11:50:32;;;;;;;10.75;9.35;;;14.60;99.90;;;;;;4972343;28;20037;-56
2022/09/25 11:53:30;;;;;;;13.10;8.77;;;14.60;99.90;;;;;;4980023;28;20388;-56
2022/09/25 11:56:36;;;;;;;10.13;8.40;;;14.50;99.90;;;;;;4975732;28;20887;-56
2022/09/25 11:59:13;;;;;;;10.32;8.25;;;14.40;99.90;;;;;;4974978;28;20134;-57
2022/09/25 12:02:09;;;;;;;10.00;8.10;;;14.40;99.90;;;;;;4976455;28;20147;-55
2022/09/25 12:04:54;;;;;;;10.82;9.02;;;14.30;99.90;;;;;;4976053;28;20050;-54
2022/09/25 12:07:39;;;;;;;13.75;10.40;;;14.20;99.90;;;;;;4977970;28;20376;-55
2022/09/25 12:10:18;;;;;;;9.55;7.97;;;14.10;99.90;;;;;;4978621;28;20154;-55
2022/09/25 12:12:58;;;;;;;10.82;8.65;;;13.90;99.90;;;;;;4980361;28;20033;-55
2022/09/25 12:15:41;;;;;;;14.48;9.10;;;13.90;99.90;;;;;;4972332;28;20265;-55
2022/09/25 12:18:30;;;;;;;10.98;9.35;;;13.80;99.90;;;;;;4974973;28;20558;-55
2022/09/25 12:21:09;;;;;;;11.88;8.98;;;13.60;99.90;;;;;;4974816;28;20109;-55
2022/09/25 12:24:02;;;;;;;9.90;8.85;;;13.50;99.90;;;;;;4980505;28;20127;-56
2022/09/25 12:26:50;;;;;;;10.27;8.32;;;13.40;99.90;;;;;;4975806;28;20040;-54
2022/09/25 12:29:34;;;;;;;;;;;13.20;99.90;;;;;;4978532;28;20037;-57
2022/09/25 12:32:37;;;;;;;8.55;7.53;;;13.10;99.90;;;;;;4977983;28;19928;-53
2022/09/25 12:35:34;;;;;;;8.73;7.38;;;13.00;99.90;;;;;;4984769;28;20033;-54
2022/09/25 12:38:10;;;;;;;11.50;7.90;;;12.90;99.90;;;;;;4978750;28;20039;-55
2022/09/25 12:40:54;;;;;;;9.60;7.93;;;12.80;99.90;;;;;;4970190;28;20143;-54
2022/09/25 12:43:35;;;;;;;8.77;7.25;;;12.80;99.90;;;;;;4978479;28;20730;-54
2022/09/25 12:46:14;;;;;;;14.88;9.20;;;12.70;99.90;;;;;;4972274;28;20041;-55
2022/09/25 12:49:12;;;;;;;10.65;7.82;;;12.70;99.90;;;;;;4969120;28;20041;-53
2022/09/25 12:51:48;;;;;;;9.00;7.97;;;12.70;99.90;;;;;;4975354;28;20056;-54
2022/09/25 12:54:37;;;;;;;9.68;7.68;;;12.70;99.90;;;;;;4982456;28;20160;-56
2022/09/25 12:57:28;;;;;;;17.98;15.07;;;12.70;99.90;;;;;;4994732;28;20152;-54
2022/09/25 13:00:02;;;;;;;18.15;15.90;;;12.70;99.90;;;;;;4977032;28;20042;-54
2022/09/25 13:02:43;;;;;;;7.50;6.68;;;12.60;99.90;;;;;;4970289;28;20740;-54
2022/09/25 13:05:25;;;;;;;12.73;8.50;;;12.60;99.90;;;;;;4980467;28;20215;-55
2022/09/25 13:08:20;;;;;;;8.57;7.05;;;12.60;99.90;;;;;;4983189;28;20049;-53
2022/09/25 13:11:03;;;;;;;10.10;7.13;;;12.60;99.90;;;;;;4988033;28;20102;-55
2022/09/25 13:13:38;;;;;;;9.00;7.43;;;12.60;99.90;;;;;;4974395;28;20613;-56
2022/09/25 13:16:06;;;;;;;10.38;9.25;;;12.60;99.90;;;;;;4985058;28;20045;-57
2022/09/25 13:18:35;;;;;;;11.82;8.00;;;12.60;99.90;;;;;;4978616;28;20037;-56
2022/09/25 13:21:22;;;;;;;12.88;7.85;;;12.50;99.90;;;;;;4978350;28;20126;-54
2022/09/25 13:23:52;;;;;;;10.18;7.68;;;12.50;99.90;;;;;;4975921;28;20633;-53
2022/09/25 13:26:26;;;;;;;8.02;7.18;;;12.40;99.90;;;;;;4971762;28;20179;-54
2022/09/25 13:29:13;;;;;;;11.68;8.68;;;12.40;99.90;;;;;;4976057;28;20635;-55
2022/09/25 13:31:43;;;;;;;9.77;8.43;;;12.40;99.90;;;;;;4976170;28;20041;-55
2022/09/25 13:34:16;;;;;;;11.65;9.00;;;12.40;99.90;;;;;;4976788;28;20453;-53
2022/09/25 13:36:51;;;;;;;12.20;10.18;;;12.40;99.90;;;;;;4975003;28;20200;-55
2022/09/25 13:42:15;;;;;;;13.60;10.38;;;12.40;99.90;;;;;;4977462;28;20214;-58
2022/09/25 13:44:42;;;;;;;22.35;17.52;;;12.40;99.90;;;;;;4969036;28;20549;-55
2022/09/25 13:47:24;;;;;;;17.95;11.38;;;12.30;99.90;;;;;;4977930;28;20044;-56